Terminal Aerodrome Forecast
Issued by NWS

Home | Current Version | Previous Version | Text Only | Print | Product List | Glossary On
Versions: 1 2 3 4 5 6 7 8 9 10 11 12 13 14
000
FTUS46 KMTR 271120
TAFMRY
TAF
KMRY 271120Z 2712/2812 VRB04KT P6SM VCSH FEW025 SCT035 BKN060
      TEMPO 2712/2715 -RA BKN040
     FM271500 VRB04KT P6SM BKN060
     FM271800 28007KT P6SM SCT100
     FM280500 23007KT P6SM SCT100=

USA.gov is the U.S. government's official web portal to all federal, state and local government web resources and services.